Time;durP1;ratioP1;P1;durP2;ratioP2;P2;SDS_P1;SDS_P2;PMS_P1;PMS_P2;Temp;Humidity;BMP_temperature;BMP_pressure;BME280_temperature;BME280_humidity;BME280_pressure;Samples;Min_cycle;Max_cycle;Signal;HPM_P1;HPM_P2
2022/05/22 00:01:03;;;;;;;;;;;;;;;12.75;58.56;100373.69;4947023;29;1202;-96
2022/05/22 00:03:29;;;;;;;;;;;;;;;12.75;58.50;100365.56;4979605;28;1987;-96
2022/05/22 00:05:56;;;;;;;;;;;;;;;12.74;58.48;100364.75;4973210;28;1272;-96
2022/05/22 00:08:23;;;;;;;;;;;;;;;12.72;58.64;100366.88;4947597;29;1424;-96
2022/05/22 00:10:49;;;;;;;;;;;;;;;12.72;58.56;100370.38;4972795;28;1339;-96
2022/05/22 00:13:16;;;;;;;;;;;;;;;12.72;58.57;100372.28;4947589;29;1375;-96
2022/05/22 00:16:36;;;;;;;;;;;;;;;12.71;58.54;100374.16;4972221;28;1293;-96
2022/05/22 00:18:29;;;;;;;;;;;;;;;12.71;58.51;100370.63;4947970;29;1355;-96
2022/05/22 00:20:56;;;;;;;;;;;;;;;12.71;58.56;100360.66;4980200;28;1225;-96
2022/05/22 00:23:23;;;;;;;;;;;;;;;12.71;58.49;100367.94;4969382;28;1973;-96
2022/05/22 00:25:49;;;;;;;;;;;;;;;12.70;58.68;100368.97;4947487;29;1323;-96
2022/05/22 00:28:16;;;;;;;;;;;;;;;12.68;58.72;100363.00;4969808;28;1502;-96
2022/05/22 00:30:43;;;;;;;;;;;;;;;12.66;58.72;100365.94;4947166;29;1298;-96
2022/05/22 00:33:09;;;;;;;;;;;;;;;12.67;58.71;100355.94;4946833;29;1329;-96
2022/05/22 00:35:36;;;;;;;;;;;;;;;12.66;58.70;100365.94;4946542;29;1295;-96
2022/05/22 00:38:02;;;;;;;;;;;;;;;12.66;58.74;100370.53;4968874;28;1220;-96
2022/05/22 00:40:29;;;;;;;;;;;;;;;12.66;58.66;100367.81;4947036;29;1231;-96
2022/05/22 00:42:55;;;;;;;;;;;;;;;12.65;58.62;100369.72;4945635;29;1919;-96
2022/05/22 00:45:22;;;;;;;;;;;;;;;12.65;58.73;100363.50;4947364;29;1395;-96
2022/05/22 00:47:50;;;;;;;;;;;;;;;12.64;58.62;100365.34;4948246;28;1162;-96
2022/05/22 00:50:17;;;;;;;;;;;;;;;12.63;58.67;100363.72;4944417;29;1423;-96
2022/05/22 00:52:43;;;;;;;;;;;;;;;12.63;58.78;100357.50;4957210;29;1265;-96
2022/05/22 00:55:09;;;;;;;;;;;;;;;12.63;58.76;100366.41;4946157;29;1269;-96
2022/05/22 00:57:36;;;;;;;;;;;;;;;12.60;58.72;100361.50;4946175;29;1347;-96
2022/05/22 01:00:02;;;;;;;;;;;;;;;12.58;58.80;100366.28;4946824;29;1201;-96
2022/05/22 01:03:26;;;;;;;;;;;;;;;12.59;58.80;100359.00;4946090;29;1902;-96
2022/05/22 01:05:15;;;;;;;;;;;;;;;12.59;58.67;100365.25;4968033;28;1421;-96
2022/05/22 01:07:42;;;;;;;;;;;;;;;12.59;58.63;100362.56;4948887;29;1214;-96
2022/05/22 01:10:08;;;;;;;;;;;;;;;12.58;58.63;100360.88;4946400;29;1217;-96
2022/05/22 01:12:35;;;;;;;;;;;;;;;12.58;58.67;100357.38;4967693;28;1212;-96
2022/05/22 01:15:01;;;;;;;;;;;;;;;12.56;58.70;100354.94;4946299;29;1362;-96
2022/05/22 01:17:31;;;;;;;;;;;;;;;12.56;58.65;100351.38;4967754;28;1267;-96
2022/05/22 01:19:57;;;;;;;;;;;;;;;12.56;58.68;100354.94;4946530;29;1185;-96
2022/05/22 01:22:26;;;;;;;;;;;;;;;12.56;58.71;100373.84;4946466;29;1982;-96
2022/05/22 01:24:52;;;;;;;;;;;;;;;12.54;58.79;100365.13;4946184;29;1260;-96
2022/05/22 01:27:19;;;;;;;;;;;;;;;12.55;58.53;100369.47;4966345;28;1367;-96
2022/05/22 01:29:45;;;;;;;;;;;;;;;12.53;58.83;100368.06;4944972;29;1244;-96
2022/05/22 01:32:12;;;;;;;;;;;;;;;12.52;58.84;100367.25;4945227;29;1280;-96
2022/05/22 01:34:38;;;;;;;;;;;;;;;12.50;58.76;100364.78;4966370;28;1385;-96
2022/05/22 01:37:05;;;;;;;;;;;;;;;12.50;58.78;100364.78;4945734;29;1410;-96
2022/05/22 01:39:32;;;;;;;;;;;;;;;12.50;58.66;100363.97;4966224;28;1321;-96
2022/05/22 01:41:58;;;;;;;;;;;;;;;12.49;58.67;100357.72;4944812;29;1941;-96
2022/05/22 01:44:25;;;;;;;;;;;;;;;12.49;58.61;100357.72;4965626;28;1235;-96
2022/05/22 01:46:52;;;;;;;;;;;;;;;12.48;58.73;100357.97;4944255;29;1207;-96
2022/05/22 01:49:18;;;;;;;;;;;;;;;12.45;58.71;100358.47;4944147;29;1289;-96
2022/05/22 01:51:45;;;;;;;;;;;;;;;12.45;58.79;100359.28;4944888;29;1324;-96
2022/05/22 01:54:11;;;;;;;;;;;;;;;12.45;58.83;100361.16;4944547;29;1209;-96
2022/05/22 01:56:38;;;;;;;;;;;;;;;12.44;58.89;100356.78;4944613;29;1500;-96
2022/05/22 01:59:04;;;;;;;;;;;;;;;12.44;58.85;100359.50;4965502;28;1509;-96
2022/05/22 02:01:31;;;;;;;;;;;;;;;12.44;58.75;100364.91;4944625;29;1336;-96
2022/05/22 02:03:58;;;;;;;;;;;;;;;12.44;58.81;100356.78;4944225;29;1926;-96
2022/05/22 02:06:24;;;;;;;;;;;;;;;12.43;58.79;100360.56;4964910;28;1331;-96
2022/05/22 02:08:50;;;;;;;;;;;;;;;12.43;58.69;100357.88;4944659;29;1580;-96
2022/05/22 02:11:16;;;;;;;;;;;;;;;12.42;58.85;100356.22;4944414;29;1429;-96
2022/05/22 02:13:44;;;;;;;;;;;;;;;12.42;58.84;100361.63;4944260;29;1189;-96
2022/05/22 02:16:10;;;;;;;;;;;;;;;12.40;58.84;100359.16;4967540;28;1336;-96
2022/05/22 02:18:37;;;;;;;;;;;;;;;12.40;58.70;100359.16;4944977;29;1227;-96
2022/05/22 02:21:04;;;;;;;;;;;;;;;12.40;58.75;100361.03;4944990;29;1194;-96
2022/05/22 02:23:30;;;;;;;;;;;;;;;12.39;58.88;100360.22;4944886;29;1956;-96
2022/05/22 02:25:56;;;;;;;;;;;;;;;12.39;58.64;100357.53;4967038;28;1185;-96
2022/05/22 02:28:23;;;;;;;;;;;;;;;12.38;58.84;100366.69;4944985;29;1361;-96
2022/05/22 02:30:49;;;;;;;;;;;;;;;12.39;58.86;100359.41;4966691;28;1367;-96
2022/05/22 02:33:16;;;;;;;;;;;;;;;12.37;58.89;100354.22;4944384;29;1177;-96
2022/05/22 02:35:42;;;;;;;;;;;;;;;12.36;58.70;100355.28;4944037;29;1298;-96
2022/05/22 02:38:10;;;;;;;;;;;;;;;12.37;58.80;100356.94;4944722;29;1241;-96
2022/05/22 02:40:36;;;;;;;;;;;;;;;12.36;58.77;100363.41;4944356;29;1205;-96
2022/05/22 02:43:02;;;;;;;;;;;;;;;12.35;58.52;100361.72;4966726;28;1918;-96
2022/05/22 02:45:30;;;;;;;;;;;;;;;12.35;58.62;100360.91;4943639;29;1304;-96
2022/05/22 02:47:56;;;;;;;;;;;;;;;12.33;58.79;100358.47;4944808;29;1273;-96
2022/05/22 02:50:23;;;;;;;;;;;;;;;12.33;58.80;100354.94;4944915;29;1381;-96
2022/05/22 02:52:50;;;;;;;;;;;;;;;12.33;58.52;100349.56;4944341;29;1253;-96
2022/05/22 02:55:17;;;;;;;;;;;;;;;12.33;58.86;100349.56;4943965;29;1335;-96
2022/05/22 02:57:43;;;;;;;;;;;;;;;12.33;58.66;100350.38;4931064;29;1297;-96
2022/05/22 03:00:10;;;;;;;;;;;;;;;12.32;58.77;100354.09;4938306;29;1246;-96
2022/05/22 03:02:36;;;;;;;;;;;;;;;12.32;58.55;100354.09;4931055;29;1977;-96
2022/05/22 03:05:02;;;;;;;;;;;;;;;12.30;58.65;100358.13;4937487;29;1162;-96
2022/05/22 03:07:29;;;;;;;;;;;;;;;12.30;58.78;100355.44;4933597;29;1185;-96
2022/05/22 03:09:55;;;;;;;;;;;;;;;12.30;58.84;100350.03;4936159;29;1362;-96
2022/05/22 03:12:22;;;;;;;;;;;;;;;12.30;58.63;100350.03;4933298;29;1256;-96
2022/05/22 03:14:48;;;;;;;;;;;;;;;12.30;58.65;100350.84;4936096;29;1491;-96
2022/05/22 03:17:15;;;;;;;;;;;;;;;12.28;58.68;100351.06;4933697;29;1479;-96
2022/05/22 03:19:41;;;;;;;;;;;;;;;12.29;58.68;100346.47;4936851;29;1270;-96
2022/05/22 03:22:08;;;;;;;;;;;;;;;12.27;58.71;100348.63;4933099;29;1978;-96
2022/05/22 03:24:35;;;;;;;;;;;;;;;12.28;58.68;100352.94;4936091;29;1342;-96
2022/05/22 03:27:01;;;;;;;;;;;;;;;12.27;58.75;100354.00;4932850;29;1272;-96
2022/05/22 03:29:28;;;;;;;;;;;;;;;12.27;58.73;100343.22;4936041;29;1235;-96
2022/05/22 03:31:54;;;;;;;;;;;;;;;12.26;58.58;100346.94;4934127;29;1386;-96
2022/05/22 03:34:21;;;;;;;;;;;;;;;12.25;58.72;100346.13;4935559;29;1388;-96
2022/05/22 03:36:47;;;;;;;;;;;;;;;12.25;58.73;100343.44;4932812;29;1403;-96
2022/05/22 03:39:14;;;;;;;;;;;;;;;12.25;58.67;100343.44;4936219;29;1420;-96
2022/05/22 03:41:41;;;;;;;;;;;;;;;12.24;58.58;100336.41;4932955;29;1269;-96
2022/05/22 03:44:07;;;;;;;;;;;;;;;12.24;58.72;100346.38;4935512;29;2031;-96
2022/05/22 03:46:34;;;;;;;;;;;;;;;12.23;58.70;100344.72;4932645;29;1387;-96
2022/05/22 03:49:00;;;;;;;;;;;;;;;12.22;58.73;100346.59;4935516;29;1438;-96
2022/05/22 03:51:27;;;;;;;;;;;;;;;12.22;58.65;100349.31;4933357;29;1281;-96
2022/05/22 03:53:53;;;;;;;;;;;;;;;12.23;58.63;100344.72;4934981;29;1243;-96
2022/05/22 03:56:20;;;;;;;;;;;;;;;12.22;58.58;100346.59;4932454;29;1265;-96
2022/05/22 03:58:46;;;;;;;;;;;;;;;12.20;58.67;100346.00;4925405;29;1181;-96
2022/05/22 04:01:13;;;;;;;;;;;;;;;12.21;58.65;100354.97;4935697;29;1182;-96
2022/05/22 04:03:39;;;;;;;;;;;;;;;12.20;58.50;100353.28;4943588;29;1973;-96
2022/05/22 04:06:06;;;;;;;;;;;;;;;12.18;58.70;100350.84;4932476;29;1180;-96
2022/05/22 04:08:32;;;;;;;;;;;;;;;12.19;58.65;100355.19;4935420;29;1222;-96
2022/05/22 04:10:59;;;;;;;;;;;;;;;12.20;58.62;100362.22;4932459;29;1222;-96
2022/05/22 04:13:26;;;;;;;;;;;;;;;12.19;58.66;100365.97;4934884;29;1277;-96
2022/05/22 04:15:52;;;;;;;;;;;;;;;12.18;58.61;100361.66;4931948;29;1349;-96
2022/05/22 04:18:19;;;;;;;;;;;;;;;12.17;58.72;100362.69;4935911;29;1198;-96
2022/05/22 04:20:45;;;;;;;;;;;;;;;12.18;58.72;100364.34;4931895;29;1216;-96
2022/05/22 04:25:56;;;;;;;;;;;;;;;12.16;58.70;100362.94;4946807;29;1166;-96
2022/05/22 04:28:22;;;;;;;;;;;;;;;12.17;58.62;100372.66;4935643;29;1414;-96
2022/05/22 04:30:49;;;;;;;;;;;;;;;12.16;58.43;100360.22;4938859;29;1355;-96
2022/05/22 04:33:15;;;;;;;;;;;;;;;12.16;58.53;100360.22;4935579;29;1305;-96
2022/05/22 04:35:43;;;;;;;;;;;;;;;12.16;58.41;100365.63;4938387;29;1388;-96
2022/05/22 04:38:09;;;;;;;;;;;;;;;12.15;58.56;100364.81;4935282;29;1296;-96
2022/05/22 04:40:36;;;;;;;;;;;;;;;12.15;58.51;100370.22;4939232;29;1254;-96
2022/05/22 04:43:02;;;;;;;;;;;;;;;12.18;58.53;100371.63;4934141;29;1978;-96
2022/05/22 04:45:32;;;;;;;;;;;;;;;12.15;58.48;100367.50;4927769;29;1507;-96
2022/05/22 04:47:59;;;;;;;;;;;;;;;12.14;58.44;100370.44;4939139;29;1358;-96
2022/05/22 04:50:25;;;;;;;;;;;;;;;12.13;58.51;100366.91;4933978;29;1292;-96
2022/05/22 04:52:51;;;;;;;;;;;;;;;12.13;58.58;100371.50;4939226;29;1409;-96
2022/05/22 04:55:18;;;;;;;;;;;;;;;12.12;58.56;100373.38;4940064;29;1263;-96
2022/05/22 04:57:44;;;;;;;;;;;;;;;12.12;58.45;100386.88;4969099;28;1486;-96
2022/05/22 05:00:11;;;;;;;;;;;;;;;12.13;58.55;100377.72;4945079;29;1348;-96
2022/05/22 05:02:37;;;;;;;;;;;;;;;12.13;58.57;100377.72;4945751;29;1969;-96
2022/05/22 05:05:05;;;;;;;;;;;;;;;12.12;58.36;100378.78;4946499;29;1363;-96
2022/05/22 05:07:31;;;;;;;;;;;;;;;12.12;58.53;100377.94;4977968;28;1158;-96
2022/05/22 05:09:58;;;;;;;;;;;;;;;12.12;58.59;100389.59;4968596;28;1259;-96
2022/05/22 05:12:26;;;;;;;;;;;;;;;12.11;58.50;100379.81;4948583;29;1452;-96
2022/05/22 05:14:55;;;;;;;;;;;;;;;12.11;58.42;100387.09;4970631;28;1189;-96
2022/05/22 05:17:21;;;;;;;;;;;;;;;12.11;58.52;100395.19;4946295;29;1299;-96
2022/05/22 05:19:49;;;;;;;;;;;;;;;12.10;58.55;100394.38;4968018;28;1595;-96
2022/05/22 05:22:16;;;;;;;;;;;;;;;12.11;58.48;100392.50;4946838;29;1289;-96
2022/05/22 05:24:43;;;;;;;;;;;;;;;12.12;58.46;100397.69;4966926;28;1907;-96
2022/05/22 05:27:09;;;;;;;;;;;;;;;12.10;58.51;100391.69;4944787;29;1318;-96
2022/05/22 05:29:36;;;;;;;;;;;;;;;12.10;58.23;100393.56;4967061;28;1292;-96
2022/05/22 05:32:02;;;;;;;;;;;;;;;12.09;58.51;100398.16;4945121;29;1281;-96
2022/05/22 05:34:29;;;;;;;;;;;;;;;12.10;58.44;100398.97;4944269;29;1499;-96
2022/05/22 05:36:56;;;;;;;;;;;;;;;12.10;58.48;100402.47;4944100;29;1240;-96
2022/05/22 05:39:22;;;;;;;;;;;;;;;12.09;58.47;100406.25;4966432;28;1200;-96
2022/05/22 05:41:49;;;;;;;;;;;;;;;12.09;58.54;100406.25;4944196;29;1300;-96
2022/05/22 05:44:15;;;;;;;;;;;;;;;12.10;58.30;100401.66;4955563;28;1985;-96
2022/05/22 05:46:42;;;;;;;;;;;;;;;12.10;58.48;100399.78;4954718;29;1226;-96
2022/05/22 05:49:08;;;;;;;;;;;;;;;12.09;58.33;100402.69;4944018;29;1416;-96
2022/05/22 05:51:36;;;;;;;;;;;;;;;12.08;58.48;100395.66;4975805;28;1273;-96
2022/05/22 05:54:02;;;;;;;;;;;;;;;12.09;58.46;100400.00;4966175;28;1327;-96
2022/05/22 05:56:28;;;;;;;;;;;;;;;12.09;58.41;100398.16;4944200;29;1262;-96
2022/05/22 05:58:55;;;;;;;;;;;;;;;12.09;58.50;100394.59;4965513;28;1214;-96
2022/05/22 06:01:21;;;;;;;;;;;;;;;12.08;58.44;100391.09;4944265;29;1257;-96
2022/05/22 06:03:48;;;;;;;;;;;;;;;12.09;58.43;100386.50;4943394;29;1906;-96
2022/05/22 06:06:14;;;;;;;;;;;;;;;12.08;58.41;100393.78;4964844;28;1264;-96
2022/05/22 06:08:40;;;;;;;;;;;;;;;12.10;58.18;100390.88;4942847;29;1198;-96
2022/05/22 06:11:07;;;;;;;;;;;;;;;12.12;58.09;100392.28;4965401;28;1283;-96
2022/05/22 06:13:34;;;;;;;;;;;;;;;12.10;58.18;100388.97;4943350;29;1292;-96
2022/05/22 06:16:02;;;;;;;;;;;;;;;12.09;58.32;100390.06;4964643;28;1201;-96
2022/05/22 06:18:28;;;;;;;;;;;;;;;12.10;58.38;100394.38;4942903;29;1365;-96
2022/05/22 06:20:54;;;;;;;;;;;;;;;12.11;58.25;100390.63;4964560;28;1272;-96
2022/05/22 06:23:21;;;;;;;;;;;;;;;12.13;58.22;100383.13;4942933;29;1911;-96
2022/05/22 06:25:47;;;;;;;;;;;;;;;12.12;58.34;100400.38;4964135;28;1322;-96
2022/05/22 06:28:14;;;;;;;;;;;;;;;12.12;58.20;100392.28;4942568;29;1399;-96
2022/05/22 06:30:40;;;;;;;;;;;;;;;12.11;58.23;100389.81;4963921;28;1287;-96
2022/05/22 06:33:07;;;;;;;;;;;;;;;12.11;58.32;100389.81;4942651;29;1298;-96
2022/05/22 06:35:33;;;;;;;;;;;;;;;12.08;58.39;100393.78;4942530;29;1209;-96
2022/05/22 06:37:59;;;;;;;;;;;;;;;12.10;58.32;100390.88;4942629;29;1627;-96
2022/05/22 06:40:25;;;;;;;;;;;;;;;12.11;58.36;100389.81;4965561;28;1262;-96
2022/05/22 06:42:51;;;;;;;;;;;;;;;12.10;58.30;100398.97;4932061;29;1492;-96
2022/05/22 06:45:21;;;;;;;;;;;;;;;12.10;58.32;100391.69;4949503;29;1915;-96
2022/05/22 06:47:48;;;;;;;;;;;;;;;12.11;58.36;100397.91;4941774;29;1174;-96
2022/05/22 06:50:14;;;;;;;;;;;;;;;12.11;58.15;100396.03;4942275;29;1297;-96
2022/05/22 06:52:41;;;;;;;;;;;;;;;12.10;58.34;100388.97;4965005;28;1204;-96
2022/05/22 06:55:08;;;;;;;;;;;;;;;12.10;58.21;100388.97;4940959;29;1293;-96
2022/05/22 06:57:34;;;;;;;;;;;;;;;12.11;58.19;100389.81;4964308;28;1231;-96
2022/05/22 07:00:00;;;;;;;;;;;;;;;12.11;58.51;100385.22;4940684;29;1187;-96
2022/05/22 07:02:27;;;;;;;;;;;;;;;12.12;58.29;100391.44;4972723;28;1160;-96
2022/05/22 07:04:53;;;;;;;;;;;;;;;12.11;58.20;100387.09;4964360;28;1918;-96
2022/05/22 07:07:20;;;;;;;;;;;;;;;12.12;58.16;100386.03;4940685;29;1192;-96
2022/05/22 07:09:47;;;;;;;;;;;;;;;12.11;58.28;100379.00;4963867;28;1268;-96
2022/05/22 07:12:14;;;;;;;;;;;;;;;12.12;58.13;100377.94;4940295;29;1147;-96
2022/05/22 07:14:40;;;;;;;;;;;;;;;12.10;58.27;100380.88;4966694;28;1140;-96
2022/05/22 07:17:06;;;;;;;;;;;;;;;12.11;58.31;100387.09;4940645;29;1175;-96
2022/05/22 07:19:34;;;;;;;;;;;;;;;12.12;58.31;100383.34;4966903;28;1462;-96
2022/05/22 07:22:00;;;;;;;;;;;;;;;12.13;58.30;100385.81;4940340;29;1229;-96
2022/05/22 07:24:27;;;;;;;;;;;;;;;12.15;58.09;100377.50;4972056;28;1906;-96
2022/05/22 07:26:53;;;;;;;;;;;;;;;12.17;58.22;100380.75;4966454;28;1345;-96
2022/05/22 07:29:19;;;;;;;;;;;;;;;12.17;58.14;100386.97;4940541;29;1327;-96
2022/05/22 07:31:46;;;;;;;;;;;;;;;12.19;58.21;100386.75;4966404;28;1217;-96
2022/05/22 07:34:12;;;;;;;;;;;;;;;12.21;58.15;100390.88;4940095;29;1190;-96
2022/05/22 07:36:38;;;;;;;;;;;;;;;12.21;58.03;100388.19;4966280;28;1371;-96
2022/05/22 07:39:05;;;;;;;;;;;;;;;12.22;57.93;100391.69;4940123;29;1282;-96
2022/05/22 07:41:32;;;;;;;;;;;;;;;12.22;58.05;100384.41;4969437;28;1494;-96
2022/05/22 07:43:58;;;;;;;;;;;;;;;12.23;58.07;100382.53;4966303;28;1912;-96
2022/05/22 07:46:24;;;;;;;;;;;;;;;12.24;58.05;100392.28;4940282;29;1193;-96
2022/05/22 07:48:51;;;;;;;;;;;;;;;12.25;57.92;100391.22;4966507;28;1312;-96
2022/05/22 07:51:17;;;;;;;;;;;;;;;12.24;58.03;100390.41;4939837;29;1273;-96
2022/05/22 07:53:44;;;;;;;;;;;;;;;12.25;57.82;100394.75;4967986;28;1204;-96
2022/05/22 07:56:13;;;;;;;;;;;;;;;12.26;58.02;100392.84;4939799;29;1271;-96
2022/05/22 07:58:39;;;;;;;;;;;;;;;12.27;58.03;100394.53;4969107;28;1275;-96
2022/05/22 08:01:05;;;;;;;;;;;;;;;12.27;57.95;100394.53;4943878;29;1325;-96
2022/05/22 08:03:32;;;;;;;;;;;;;;;12.27;58.02;100391.81;4971511;28;1914;-96
2022/05/22 08:06:00;;;;;;;;;;;;;;;12.27;58.11;100389.13;4943534;29;1351;-96
2022/05/22 08:08:27;;;;;;;;;;;;;;;12.27;58.04;100387.22;4971450;28;1321;-96
2022/05/22 08:10:54;;;;;;;;;;;;;;;12.27;58.18;100389.13;4943580;29;1211;-96
2022/05/22 08:13:21;;;;;;;;;;;;;;;12.26;58.18;100390.16;4970846;28;1437;-96
2022/05/22 08:15:47;;;;;;;;;;;;;;;12.27;57.86;100392.63;4943650;29;1175;-96
2022/05/22 08:18:13;;;;;;;;;;;;;;;12.26;58.15;100388.31;4970898;28;1217;-96
2022/05/22 08:20:40;;;;;;;;;;;;;;;12.28;58.09;100383.47;4943814;29;1332;-96
2022/05/22 08:23:06;;;;;;;;;;;;;;;12.28;58.12;100388.06;4943541;29;1281;-96
2022/05/22 08:25:32;;;;;;;;;;;;;;;12.28;58.21;100388.88;4970250;28;1906;-96
2022/05/22 08:27:59;;;;;;;;;;;;;;;12.30;58.17;100385.13;4943430;29;1232;-96
2022/05/22 08:30:25;;;;;;;;;;;;;;;12.30;58.14;100387.84;4970516;28;1172;-96
2022/05/22 08:32:52;;;;;;;;;;;;;;;12.30;58.03;100394.03;4943308;29;1283;-96
2022/05/22 08:35:18;;;;;;;;;;;;;;;12.31;57.84;100389.47;4969968;28;1319;-96
2022/05/22 08:37:44;;;;;;;;;;;;;;;12.30;58.06;100385.13;4944224;29;1193;-96
2022/05/22 08:40:11;;;;;;;;;;;;;;;12.31;58.15;100392.16;4974051;28;1272;-96
2022/05/22 08:42:37;;;;;;;;;;;;;;;12.30;58.24;100385.94;4971190;28;1248;-96
2022/05/22 08:45:04;;;;;;;;;;;;;;;12.32;58.24;100391.91;4943423;29;1919;-96
2022/05/22 08:47:30;;;;;;;;;;;;;;;12.32;58.14;100394.63;4970090;28;1340;-96
2022/05/22 08:49:57;;;;;;;;;;;;;;;12.33;58.16;100398.16;4943331;28;1295;-96
2022/05/22 08:52:23;;;;;;;;;;;;;;;12.32;58.25;100391.91;4943058;29;1366;-96
2022/05/22 08:54:50;;;;;;;;;;;;;;;12.32;58.26;100397.31;4970084;28;1328;-96
2022/05/22 09:00:00;;;;;;;;;;;;;;;12.33;58.19;100387.34;4970154;28;1283;-96
2022/05/22 09:02:26;;;;;;;;;;;;;;;12.34;58.36;100397.09;4942899;29;1210;-96
2022/05/22 09:04:53;;;;;;;;;;;;;;;12.34;58.25;100394.41;4969993;28;1911;-96
2022/05/22 09:07:19;;;;;;;;;;;;;;;12.34;58.41;100392.50;4942819;29;1272;-96
2022/05/22 09:09:45;;;;;;;;;;;;;;;12.35;58.35;100394.16;4968093;28;1341;-96
2022/05/22 09:12:12;;;;;;;;;;;;;;;12.35;58.38;100388.75;4942450;29;1360;-96
2022/05/22 09:14:38;;;;;;;;;;;;;;;12.35;58.38;100386.03;4969495;28;1403;-96
2022/05/22 09:17:05;;;;;;;;;;;;;;;12.36;58.27;100386.88;4942414;29;1234;-96
2022/05/22 09:19:31;;;;;;;;;;;;;;;12.35;58.38;100386.03;4969731;28;1400;-96
2022/05/22 09:21:57;;;;;;;;;;;;;;;12.37;58.45;100391.22;4943102;29;1273;-96
2022/05/22 09:24:24;;;;;;;;;;;;;;;12.37;58.45;100391.22;4942091;29;1914;-96
2022/05/22 09:26:50;;;;;;;;;;;;;;;12.38;58.46;100392.84;4970189;28;1290;-96
2022/05/22 09:29:17;;;;;;;;;;;;;;;12.38;58.46;100399.09;4942372;29;1347;-96
2022/05/22 09:31:43;;;;;;;;;;;;;;;12.38;58.49;100393.69;4969853;28;1237;-96
2022/05/22 09:34:09;;;;;;;;;;;;;;;12.40;58.30;100401.56;4941910;29;1201;-96
2022/05/22 09:36:36;;;;;;;;;;;;;;;12.39;58.38;100403.44;4969971;28;1309;-96
2022/05/22 09:39:02;;;;;;;;;;;;;;;12.40;58.45;100393.44;4942184;29;1490;-96
2022/05/22 09:41:31;;;;;;;;;;;;;;;12.40;58.43;100391.56;4942017;29;1190;-96
2022/05/22 09:43:57;;;;;;;;;;;;;;;12.40;58.36;100386.16;4969013;28;1964;-96
2022/05/22 09:46:24;;;;;;;;;;;;;;;12.40;58.36;100388.88;4941897;29;1158;-96
2022/05/22 09:48:52;;;;;;;;;;;;;;;12.41;58.44;100387.81;4942591;29;1218;-96
2022/05/22 09:51:18;;;;;;;;;;;;;;;12.41;58.58;100385.13;4968565;28;1333;-96
2022/05/22 09:53:45;;;;;;;;;;;;;;;12.43;58.42;100384.88;4941617;29;1277;-96
2022/05/22 09:56:12;;;;;;;;;;;;;;;12.42;58.43;100386.75;4967967;28;1213;-96
2022/05/22 09:58:38;;;;;;;;;;;;;;;12.42;58.48;100392.16;4942196;29;1205;-96
2022/05/22 10:01:05;;;;;;;;;;;;;;;12.43;58.41;100383.00;4968381;28;1213;-96
2022/05/22 10:03:31;;;;;;;;;;;;;;;12.44;58.58;100389.22;4941522;29;1277;-96
2022/05/22 10:05:58;;;;;;;;;;;;;;;12.45;58.39;100382.78;4968192;28;1902;-96
2022/05/22 10:08:24;;;;;;;;;;;;;;;12.45;58.60;100390.88;4941840;29;1253;-96
2022/05/22 10:10:51;;;;;;;;;;;;;;;12.46;58.49;100379.00;4968118;28;1165;-96
2022/05/22 10:13:17;;;;;;;;;;;;;;;12.46;58.45;100385.22;4941582;29;1194;-96
2022/05/22 10:15:44;;;;;;;;;;;;;;;12.47;58.57;100384.19;4967794;28;1196;-96
2022/05/22 10:18:10;;;;;;;;;;;;;;;12.46;58.50;100377.13;4941215;29;1345;-96
2022/05/22 10:20:36;;;;;;;;;;;;;;;12.48;58.55;100383.13;4967567;28;1256;-96
2022/05/22 10:23:03;;;;;;;;;;;;;;;12.50;58.57;100382.88;4941475;29;1206;-96
2022/05/22 10:25:29;;;;;;;;;;;;;;;12.49;58.52;100381.22;4967541;28;1911;-96
2022/05/22 10:27:56;;;;;;;;;;;;;;;12.50;58.45;100382.88;4941070;29;1226;-96
2022/05/22 10:30:22;;;;;;;;;;;;;;;12.50;58.47;100382.88;4967490;28;1185;-96
2022/05/22 10:32:48;;;;;;;;;;;;;;;12.52;58.47;100388.03;4941145;29;1284;-96
2022/05/22 10:35:15;;;;;;;;;;;;;;;12.52;58.37;100388.03;4967860;28;1235;-96
2022/05/22 10:37:41;;;;;;;;;;;;;;;12.53;58.26;100390.53;4941281;29;1454;-96
2022/05/22 10:40:08;;;;;;;;;;;;;;;12.54;58.41;100392.16;4941050;29;1387;-96
2022/05/22 10:42:45;;;;;;;;;;;;;;;12.53;58.49;100382.41;4940851;29;1372;-96
2022/05/22 10:45:12;;;;;;;;;;;;;;;12.55;58.29;100387.56;4940717;29;1918;-96
2022/05/22 10:47:38;;;;;;;;;;;;;;;12.56;58.45;100391.91;4968530;28;1284;-96
2022/05/22 10:50:04;;;;;;;;;;;;;;;12.56;58.39;100381.09;4940544;29;1374;-96
2022/05/22 10:52:31;;;;;;;;;;;;;;;12.57;58.46;100390.88;4968171;28;1301;-96
2022/05/22 10:54:57;;;;;;;;;;;;;;;12.56;58.20;100381.94;4940563;29;1281;-96
2022/05/22 10:57:24;;;;;;;;;;;;;;;12.57;58.39;100388.16;4968378;28;1431;-96
2022/05/22 10:59:50;;;;;;;;;;;;;;;12.57;58.33;100383.56;4940740;29;1198;-96
2022/05/22 11:02:17;;;;;;;;;;;;;;;12.58;58.33;100384.38;4968278;28;1262;-96
2022/05/22 11:04:44;;;;;;;;;;;;;;;12.59;58.35;100378.75;4940425;29;1982;-96
2022/05/22 11:07:10;;;;;;;;;;;;;;;12.60;58.47;100380.41;4968690;28;1210;-96
2022/05/22 11:09:36;;;;;;;;;;;;;;;12.59;58.48;100373.34;4941013;29;1134;-96
2022/05/22 11:12:03;;;;;;;;;;;;;;;12.60;58.32;100369.59;4967818;28;1272;-96
2022/05/22 11:14:33;;;;;;;;;;;;;;;12.62;58.34;100374.78;4940189;29;1240;-96
2022/05/22 11:16:59;;;;;;;;;;;;;;;12.62;58.41;100383.69;4967283;28;1276;-96
2022/05/22 11:19:25;;;;;;;;;;;;;;;12.62;58.44;100381.00;4940334;29;1274;-96
2022/05/22 11:21:52;;;;;;;;;;;;;;;12.62;58.49;100381.00;4967394;28;1456;-96
2022/05/22 11:24:18;;;;;;;;;;;;;;;12.64;58.45;100383.44;4940227;29;1922;-96
2022/05/22 11:26:45;;;;;;;;;;;;;;;12.65;58.59;100368.91;4967136;28;1306;-96
2022/05/22 11:29:11;;;;;;;;;;;;;;;12.65;58.55;100382.41;4940340;29;1253;-96
2022/05/22 11:31:38;;;;;;;;;;;;;;;12.65;58.42;100383.22;4966827;28;1188;-96
2022/05/22 11:34:04;;;;;;;;;;;;;;;12.65;58.41;100382.41;4939073;29;1174;-96
2022/05/22 11:36:30;;;;;;;;;;;;;;;12.66;58.61;100384.03;4960036;28;1494;-96
2022/05/22 11:38:57;;;;;;;;;;;;;;;12.66;58.69;100378.63;4967057;28;1205;-96
2022/05/22 11:41:23;;;;;;;;;;;;;;;12.67;58.55;100385.66;4940205;29;1281;-96
2022/05/22 11:43:50;;;;;;;;;;;;;;;12.67;58.68;100386.47;4966540;28;1280;-96
2022/05/22 11:46:16;;;;;;;;;;;;;;;12.67;58.60;100386.47;4940262;29;1911;-96
2022/05/22 11:48:43;;;;;;;;;;;;;;;12.68;58.70;100379.22;4966664;28;1216;-96
2022/05/22 11:51:09;;;;;;;;;;;;;;;12.69;58.55;100383.56;4939912;29;1328;-96
2022/05/22 11:53:35;;;;;;;;;;;;;;;12.69;58.65;100370.88;4968908;28;1291;-96
2022/05/22 11:56:02;;;;;;;;;;;;;;;12.70;58.61;100371.69;4939722;29;1321;-96
2022/05/22 11:58:28;;;;;;;;;;;;;;;12.70;58.74;100372.50;4968712;28;1320;-96
2022/05/22 12:00:56;;;;;;;;;;;;;;;12.70;58.75;100372.50;4940324;29;1287;-96
2022/05/22 12:03:22;;;;;;;;;;;;;;;12.72;58.63;100374.97;4940143;29;1273;-96
2022/05/22 12:05:49;;;;;;;;;;;;;;;12.72;58.63;100375.78;4968785;28;1914;-96
2022/05/22 12:08:15;;;;;;;;;;;;;;;12.72;58.64;100378.50;4940210;29;1323;-96
2022/05/22 12:10:41;;;;;;;;;;;;;;;12.73;58.62;100374.75;4972268;28;1308;-96
2022/05/22 12:13:08;;;;;;;;;;;;;;;12.73;58.67;100371.19;4968989;28;1189;-96
2022/05/22 12:15:34;;;;;;;;;;;;;;;12.73;58.86;100377.44;4939771;29;1140;-96
2022/05/22 12:18:01;;;;;;;;;;;;;;;12.73;58.70;100373.91;4968658;28;1363;-96
2022/05/22 12:20:27;;;;;;;;;;;;;;;12.76;58.82;100376.13;4940898;29;1167;-96
2022/05/22 12:23:10;;;;;;;;;;;;;;;12.75;58.79;100376.38;4970075;28;1306;-96
2022/05/22 12:25:37;;;;;;;;;;;;;;;12.76;58.78;100375.31;4940032;29;1902;-96
2022/05/22 12:28:03;;;;;;;;;;;;;;;12.76;58.94;100373.44;4966696;28;1268;-96
2022/05/22 12:30:30;;;;;;;;;;;;;;;12.76;58.92;100378.84;4940161;29;1313;-96
2022/05/22 12:32:56;;;;;;;;;;;;;;;12.77;58.84;100380.50;4967408;28;1198;-96
2022/05/22 12:35:24;;;;;;;;;;;;;;;12.77;58.41;100377.78;4939490;29;1399;-96
2022/05/22 12:37:50;;;;;;;;;;;;;;;12.78;58.95;100376.72;4939647;29;1217;-96
2022/05/22 12:40:16;;;;;;;;;;;;;;;12.78;59.04;100374.03;4966692;28;1267;-96
2022/05/22 12:42:43;;;;;;;;;;;;;;;12.79;58.86;100372.13;4939669;29;1288;-96
2022/05/22 12:45:09;;;;;;;;;;;;;;;12.79;58.71;100378.34;4968050;28;1906;-96
2022/05/22 12:47:35;;;;;;;;;;;;;;;12.80;58.95;100377.31;4943263;29;1273;-96
2022/05/22 12:50:02;;;;;;;;;;;;;;;12.80;58.91;100382.72;4969692;28;1293;-96